Terminal Aerodrome Forecast
Issued by NWS

Home | Current Version | Previous Version | Text Only | Print | Product List | Glossary On
Versions: 1 2 3 4 5 6 7 8 9 10 11 12 13
613
FTUS42 KILM 201720
TAFCRE
TAF
KCRE 201720Z 2018/2118 20007KT P6SM SCT050 SCT100
     FM210000 VRB03KT P6SM BKN070
     FM210900 00000KT 3/4SM BR OVC004
     FM211500 10004KT 4SM -RA BR OVC007=

USA.gov is the U.S. government's official web portal to all federal, state and local government web resources and services.